createdAt,value
2018-05-27T00:00:02.291Z,8.04672
2018-05-27T00:00:14.766Z,6.437376
2018-05-27T00:00:27.219Z,8.04672
2018-05-27T00:00:39.661Z,8.04672
2018-05-27T00:00:52.090Z,8.04672
2018-05-27T00:01:04.563Z,8.04672
2018-05-27T00:01:17.014Z,3.218688
2018-05-27T00:01:29.429Z,3.218688
2018-05-27T00:01:41.937Z,6.437376
2018-05-27T00:01:54.575Z,6.437376
2018-05-27T00:02:07.007Z,8.04672
2018-05-27T00:02:19.423Z,8.04672
2018-05-27T00:02:31.821Z,8.04672
2018-05-27T00:02:44.222Z,8.04672
2018-05-27T00:02:56.630Z,8.04672
2018-05-27T00:03:09.023Z,3.218688
2018-05-27T00:03:21.417Z,9.656064
2018-05-27T00:03:33.834Z,9.656064
2018-05-27T00:03:46.600Z,9.656064
2018-05-27T00:03:59.032Z,9.656064
2018-05-27T00:04:11.439Z,3.218688
2018-05-27T00:04:23.845Z,3.218688
2018-05-27T00:04:36.270Z,9.656064
2018-05-27T00:04:48.680Z,9.656064
2018-05-27T00:05:01.078Z,9.656064
2018-05-27T00:05:13.660Z,6.437376
2018-05-27T00:05:26.082Z,9.656064
2018-05-27T00:05:38.485Z,9.656064
2018-05-27T00:05:50.898Z,9.656064
2018-05-27T00:06:03.291Z,9.656064
2018-05-27T00:06:15.719Z,6.437376
2018-05-27T00:06:28.125Z,8.04672
2018-05-27T00:06:40.539Z,8.04672
2018-05-27T00:06:52.993Z,8.04672
2018-05-27T00:07:05.405Z,9.656064
2018-05-27T00:07:17.837Z,9.656064
2018-05-27T00:07:30.279Z,9.656064
2018-05-27T00:07:42.703Z,9.656064
2018-05-27T00:07:55.104Z,9.656064
2018-05-27T00:08:07.503Z,3.218688
2018-05-27T00:08:19.903Z,8.04672
2018-05-27T00:08:32.336Z,9.656064
2018-05-27T00:08:44.823Z,9.656064
2018-05-27T00:08:57.253Z,9.656064
2018-05-27T00:09:09.692Z,9.656064
2018-05-27T00:09:22.113Z,9.656064
2018-05-27T00:09:34.617Z,9.656064
2018-05-27T00:09:47.037Z,9.656064
2018-05-27T00:09:59.516Z,9.656064
2018-05-27T00:10:11.954Z,6.437376
2018-05-27T00:10:24.377Z,6.437376
2018-05-27T00:10:36.801Z,6.437376
2018-05-27T00:10:49.199Z,6.437376
2018-05-27T00:11:01.608Z,6.437376
2018-05-27T00:11:14.053Z,3.218688
2018-05-27T00:11:26.488Z,3.218688
2018-05-27T00:11:38.926Z,4.828032
2018-05-27T00:11:51.361Z,4.828032
2018-05-27T00:12:03.781Z,4.828032
2018-05-27T00:12:16.206Z,6.437376
2018-05-27T00:12:28.613Z,8.04672
2018-05-27T00:12:41.089Z,8.04672
2018-05-27T00:12:53.512Z,8.04672
2018-05-27T00:13:05.924Z,1.609344
2018-05-27T00:13:18.350Z,3.218688
2018-05-27T00:13:30.769Z,6.437376
2018-05-27T00:13:43.194Z,6.437376
2018-05-27T00:13:55.859Z,6.437376
2018-05-27T00:14:08.435Z,1.609344
2018-05-27T00:14:20.839Z,1.609344
2018-05-27T00:14:33.277Z,8.04672
2018-05-27T00:14:45.703Z,8.04672
2018-05-27T00:14:58.143Z,8.04672
2018-05-27T00:15:10.562Z,4.828032
2018-05-27T00:15:22.984Z,6.437376
2018-05-27T00:15:35.411Z,8.04672
2018-05-27T00:15:47.833Z,8.04672
2018-05-27T00:16:00.399Z,8.04672
2018-05-27T00:16:12.825Z,3.218688
2018-05-27T00:16:25.240Z,4.828032
2018-05-27T00:16:37.649Z,4.828032
2018-05-27T00:16:50.252Z,4.828032
2018-05-27T00:17:02.675Z,6.437376
2018-05-27T00:17:15.085Z,6.437376
2018-05-27T00:17:27.506Z,6.437376
2018-05-27T00:17:39.920Z,6.437376
2018-05-27T00:17:52.471Z,6.437376
2018-05-27T00:18:04.883Z,8.04672
2018-05-27T00:18:17.458Z,9.656064
2018-05-27T00:18:29.874Z,9.656064
2018-05-27T00:18:42.288Z,9.656064
2018-05-27T00:18:54.701Z,9.656064
2018-05-27T00:19:07.124Z,3.218688
2018-05-27T00:19:19.690Z,3.218688
2018-05-27T00:19:32.120Z,4.828032
2018-05-27T00:19:44.672Z,4.828032
2018-05-27T00:19:57.125Z,4.828032
2018-05-27T00:20:09.572Z,4.828032
2018-05-27T00:20:22.018Z,4.828032
2018-05-27T00:20:35.663Z,4.828032
2018-05-27T00:20:48.069Z,6.437376
2018-05-27T00:21:00.494Z,6.437376
2018-05-27T00:21:12.912Z,3.218688
2018-05-27T00:21:25.325Z,8.04672
2018-05-27T00:21:37.745Z,9.656064
2018-05-27T00:21:50.166Z,9.656064
2018-05-27T00:22:02.664Z,9.656064
2018-05-27T00:22:15.090Z,8.04672
2018-05-27T00:22:27.529Z,8.04672
2018-05-27T00:22:39.940Z,8.04672
2018-05-27T00:22:52.359Z,8.04672
2018-05-27T00:23:04.789Z,3.218688
2018-05-27T00:23:17.199Z,3.218688
2018-05-27T00:23:29.646Z,3.218688
2018-05-27T00:23:42.100Z,4.828032
2018-05-27T00:23:54.550Z,6.437376
2018-05-27T00:24:06.970Z,6.437376
2018-05-27T00:24:19.391Z,8.04672
2018-05-27T00:24:31.831Z,8.04672
2018-05-27T00:24:44.264Z,8.04672
2018-05-27T00:24:56.688Z,8.04672
2018-05-27T00:25:09.116Z,1.609344
2018-05-27T00:25:21.523Z,1.609344
2018-05-27T00:25:33.929Z,1.609344
2018-05-27T00:25:46.366Z,3.218688
2018-05-27T00:25:58.781Z,3.218688
2018-05-27T00:26:11.258Z,6.437376
2018-05-27T00:26:23.709Z,6.437376
2018-05-27T00:26:36.127Z,6.437376
2018-05-27T00:26:48.543Z,6.437376
2018-05-27T00:27:00.962Z,6.437376
2018-05-27T00:27:13.358Z,1.609344
2018-05-27T00:27:25.758Z,1.609344
2018-05-27T00:27:38.186Z,1.609344
2018-05-27T00:27:50.645Z,1.609344
2018-05-27T00:28:03.045Z,1.609344
2018-05-27T00:28:15.450Z,3.218688
2018-05-27T00:28:27.880Z,8.04672
2018-05-27T00:28:40.303Z,9.656064
2018-05-27T00:28:52.717Z,9.656064
2018-05-27T00:29:05.190Z,6.437376
2018-05-27T00:29:17.710Z,8.04672
2018-05-27T00:29:30.173Z,8.04672
2018-05-27T00:29:42.632Z,8.04672
2018-05-27T00:29:55.057Z,8.04672
2018-05-27T00:30:07.510Z,1.609344
2018-05-27T00:30:19.935Z,6.437376
2018-05-27T00:30:32.367Z,6.437376
2018-05-27T00:30:44.788Z,6.437376
2018-05-27T00:30:57.200Z,6.437376
2018-05-27T00:31:09.621Z,8.04672
2018-05-27T00:31:22.069Z,8.04672
2018-05-27T00:31:34.490Z,8.04672
2018-05-27T00:31:46.932Z,8.04672
2018-05-27T00:31:59.338Z,8.04672
2018-05-27T00:32:11.762Z,9.656064
2018-05-27T00:32:24.190Z,9.656064
2018-05-27T00:32:36.588Z,9.656064
2018-05-27T00:32:49.009Z,9.656064
2018-05-27T00:33:01.438Z,9.656064
2018-05-27T00:33:13.862Z,3.218688
2018-05-27T00:33:26.305Z,11.265408
2018-05-27T00:33:38.722Z,11.265408
2018-05-27T00:33:51.166Z,11.265408
2018-05-27T00:34:03.593Z,4.828032
2018-05-27T00:34:16.028Z,8.04672
2018-05-27T00:34:28.487Z,8.04672
2018-05-27T00:34:40.906Z,8.04672
2018-05-27T00:34:53.326Z,8.04672
2018-05-27T00:35:05.741Z,3.218688
2018-05-27T00:35:18.176Z,3.218688
2018-05-27T00:35:30.605Z,4.828032
2018-05-27T00:35:43.007Z,8.04672
2018-05-27T00:35:55.427Z,8.04672
2018-05-27T00:36:07.858Z,3.218688
2018-05-27T00:36:20.273Z,6.437376
2018-05-27T00:36:32.717Z,6.437376
2018-05-27T00:36:45.120Z,8.04672
2018-05-27T00:36:57.534Z,8.04672
2018-05-27T00:37:09.960Z,3.218688
2018-05-27T00:37:22.382Z,3.218688
2018-05-27T00:37:34.810Z,4.828032
2018-05-27T00:37:47.214Z,4.828032
2018-05-27T00:37:59.651Z,4.828032
2018-05-27T00:38:12.160Z,6.437376
2018-05-27T00:38:24.589Z,6.437376
2018-05-27T00:38:37.008Z,6.437376
2018-05-27T00:38:49.433Z,6.437376
2018-05-27T00:39:02.080Z,6.437376
2018-05-27T00:39:14.500Z,6.437376
2018-05-27T00:39:26.977Z,6.437376
2018-05-27T00:39:39.418Z,6.437376
2018-05-27T00:39:51.895Z,6.437376
2018-05-27T00:40:04.355Z,3.218688
2018-05-27T00:40:16.794Z,3.218688
2018-05-27T00:40:29.207Z,3.218688
2018-05-27T00:40:41.624Z,3.218688
2018-05-27T00:40:54.030Z,3.218688
2018-05-27T00:41:06.609Z,1.609344
2018-05-27T00:41:19.040Z,1.609344
2018-05-27T00:41:31.481Z,1.609344
2018-05-27T00:41:43.900Z,1.609344
2018-05-27T00:41:56.306Z,1.609344
2018-05-27T00:42:08.727Z,0
2018-05-27T00:42:21.141Z,0
2018-05-27T00:42:33.546Z,0
2018-05-27T00:42:46.128Z,4.828032
2018-05-27T00:42:58.533Z,4.828032
2018-05-27T00:43:10.947Z,1.609344
2018-05-27T00:43:23.390Z,1.609344
2018-05-27T00:43:35.819Z,1.609344
2018-05-27T00:43:48.233Z,3.218688
2018-05-27T00:44:00.692Z,9.656064
2018-05-27T00:44:13.100Z,9.656064
2018-05-27T00:44:25.514Z,9.656064
2018-05-27T00:44:37.928Z,9.656064
2018-05-27T00:44:50.375Z,9.656064
2018-05-27T00:45:02.811Z,3.218688
2018-05-27T00:45:15.226Z,8.04672
2018-05-27T00:45:27.640Z,8.04672
2018-05-27T00:45:40.051Z,8.04672
2018-05-27T00:45:52.480Z,8.04672
2018-05-27T00:46:04.907Z,6.437376
2018-05-27T00:46:17.315Z,6.437376
2018-05-27T00:46:29.728Z,6.437376
2018-05-27T00:46:42.140Z,6.437376
2018-05-27T00:46:54.543Z,8.04672
2018-05-27T00:47:06.975Z,6.437376
2018-05-27T00:47:19.399Z,6.437376
2018-05-27T00:47:31.830Z,6.437376
2018-05-27T00:47:44.289Z,6.437376
2018-05-27T00:47:56.706Z,6.437376
2018-05-27T00:48:09.143Z,1.609344
2018-05-27T00:48:21.730Z,1.609344
2018-05-27T00:48:34.153Z,3.218688
2018-05-27T00:48:46.580Z,3.218688
2018-05-27T00:48:59.016Z,3.218688
2018-05-27T00:49:11.446Z,4.828032
2018-05-27T00:49:23.850Z,4.828032
2018-05-27T00:49:36.313Z,4.828032
2018-05-27T00:49:48.819Z,4.828032
2018-05-27T00:50:01.920Z,8.04672
2018-05-27T00:50:14.358Z,9.656064
2018-05-27T00:50:26.782Z,9.656064
2018-05-27T00:50:39.255Z,9.656064
2018-05-27T00:50:51.662Z,9.656064
2018-05-27T00:51:04.101Z,3.218688
2018-05-27T00:51:16.533Z,8.04672
2018-05-27T00:51:28.951Z,8.04672
2018-05-27T00:51:41.393Z,8.04672
2018-05-27T00:51:53.815Z,8.04672
2018-05-27T00:52:06.249Z,1.609344
2018-05-27T00:52:18.663Z,1.609344
2018-05-27T00:52:31.174Z,8.04672
2018-05-27T00:52:43.588Z,8.04672
2018-05-27T00:52:56.002Z,9.656064
2018-05-27T00:53:08.452Z,6.437376
2018-05-27T00:53:20.880Z,6.437376
2018-05-27T00:53:33.290Z,6.437376
2018-05-27T00:53:45.719Z,11.265408
2018-05-27T00:53:58.136Z,11.265408
2018-05-27T00:54:10.589Z,4.828032
2018-05-27T00:54:23.008Z,4.828032
2018-05-27T00:54:35.441Z,4.828032
2018-05-27T00:54:47.859Z,4.828032
2018-05-27T00:55:00.275Z,4.828032
2018-05-27T00:55:12.674Z,3.218688
2018-05-27T00:55:25.099Z,3.218688
2018-05-27T00:55:37.522Z,3.218688
2018-05-27T00:55:49.981Z,3.218688
2018-05-27T00:56:02.409Z,3.218688
2018-05-27T00:56:14.859Z,1.609344
2018-05-27T00:56:27.325Z,1.609344
2018-05-27T00:56:39.747Z,3.218688
2018-05-27T00:56:52.157Z,3.218688
2018-05-27T00:57:04.569Z,3.218688
2018-05-27T00:57:17.015Z,8.04672
2018-05-27T00:57:29.489Z,8.04672
2018-05-27T00:57:41.910Z,8.04672
2018-05-27T00:57:54.336Z,8.04672
2018-05-27T00:58:06.760Z,4.828032
2018-05-27T00:58:19.174Z,4.828032
2018-05-27T00:58:31.566Z,8.04672
2018-05-27T00:58:43.982Z,9.656064
2018-05-27T00:58:56.399Z,11.265408
2018-05-27T00:59:08.886Z,8.04672
2018-05-27T00:59:21.287Z,8.04672
2018-05-27T00:59:33.696Z,8.04672
2018-05-27T00:59:46.137Z,8.04672
2018-05-27T00:59:58.562Z,8.04672
2018-05-27T01:00:11.006Z,8.04672
2018-05-27T01:00:23.468Z,8.04672
2018-05-27T01:00:35.911Z,8.04672
2018-05-27T01:00:48.390Z,8.04672
2018-05-27T01:01:00.817Z,8.04672
2018-05-27T01:01:13.290Z,8.04672
2018-05-27T01:01:25.756Z,9.656064
2018-05-27T01:01:38.215Z,9.656064
2018-05-27T01:01:50.672Z,9.656064
2018-05-27T01:02:03.117Z,3.218688
2018-05-27T01:02:15.513Z,6.437376
2018-05-27T01:02:27.956Z,9.656064
2018-05-27T01:02:40.382Z,12.874752
2018-05-27T01:02:52.812Z,12.874752
2018-05-27T01:03:05.230Z,8.04672
2018-05-27T01:03:17.652Z,8.04672
2018-05-27T01:03:30.067Z,8.04672
2018-05-27T01:03:42.486Z,11.265408
2018-05-27T01:03:55.065Z,14.484096
2018-05-27T01:04:07.506Z,9.656064
2018-05-27T01:04:19.930Z,9.656064
2018-05-27T01:04:32.412Z,11.265408
2018-05-27T01:04:44.837Z,11.265408
2018-05-27T01:04:57.270Z,11.265408
2018-05-27T01:05:09.709Z,6.437376
2018-05-27T01:05:22.192Z,9.656064
2018-05-27T01:05:34.610Z,11.265408
2018-05-27T01:05:47.193Z,11.265408
2018-05-27T01:05:59.615Z,11.265408
2018-05-27T01:06:12.069Z,9.656064
2018-05-27T01:06:24.477Z,9.656064
2018-05-27T01:06:36.915Z,9.656064
2018-05-27T01:06:49.329Z,9.656064
2018-05-27T01:07:01.774Z,9.656064
2018-05-27T01:07:14.194Z,9.656064
2018-05-27T01:07:26.611Z,9.656064
2018-05-27T01:07:39.020Z,9.656064
2018-05-27T01:07:51.414Z,9.656064
2018-05-27T01:08:03.844Z,3.218688
2018-05-27T01:08:16.267Z,6.437376
2018-05-27T01:08:28.695Z,6.437376
2018-05-27T01:08:41.121Z,6.437376
2018-05-27T01:08:53.554Z,6.437376
2018-05-27T01:09:05.986Z,0
2018-05-27T01:09:18.401Z,0
2018-05-27T01:09:30.818Z,4.828032
2018-05-27T01:09:43.234Z,9.656064
2018-05-27T01:09:55.698Z,9.656064
2018-05-27T01:10:08.119Z,8.04672
2018-05-27T01:10:20.604Z,11.265408
2018-05-27T01:10:33.011Z,11.265408
2018-05-27T01:10:45.460Z,11.265408
2018-05-27T01:10:57.927Z,11.265408
2018-05-27T01:11:10.341Z,3.218688
2018-05-27T01:11:22.768Z,3.218688
2018-05-27T01:11:35.201Z,4.828032
2018-05-27T01:11:47.619Z,4.828032
2018-05-27T01:12:00.032Z,4.828032
2018-05-27T01:12:12.460Z,3.218688
2018-05-27T01:12:24.893Z,4.828032
2018-05-27T01:12:37.303Z,4.828032
2018-05-27T01:12:49.784Z,4.828032
2018-05-27T01:13:02.191Z,6.437376
2018-05-27T01:13:14.623Z,6.437376
2018-05-27T01:13:27.042Z,6.437376
2018-05-27T01:13:39.453Z,6.437376
2018-05-27T01:13:51.894Z,6.437376
2018-05-27T01:14:04.335Z,1.609344
2018-05-27T01:14:16.802Z,3.218688
2018-05-27T01:14:29.221Z,3.218688
2018-05-27T01:14:41.633Z,6.437376
2018-05-27T01:14:54.048Z,6.437376
2018-05-27T01:15:06.457Z,1.609344
2018-05-27T01:15:18.900Z,3.218688
2018-05-27T01:15:31.325Z,3.218688
2018-05-27T01:15:43.731Z,6.437376
2018-05-27T01:15:56.129Z,6.437376
2018-05-27T01:16:08.549Z,1.609344
2018-05-27T01:16:20.982Z,3.218688
2018-05-27T01:16:33.400Z,3.218688
2018-05-27T01:16:45.809Z,3.218688
2018-05-27T01:16:58.207Z,3.218688
2018-05-27T01:17:10.630Z,3.218688
2018-05-27T01:17:23.042Z,3.218688
2018-05-27T01:17:35.450Z,3.218688
2018-05-27T01:17:47.910Z,3.218688
2018-05-27T01:18:00.572Z,3.218688
2018-05-27T01:18:13.150Z,1.609344
2018-05-27T01:18:25.732Z,1.609344
2018-05-27T01:18:38.136Z,3.218688
2018-05-27T01:18:50.595Z,8.04672
2018-05-27T01:19:03.019Z,8.04672
2018-05-27T01:19:15.444Z,9.656064
2018-05-27T01:19:27.859Z,9.656064
2018-05-27T01:19:40.466Z,9.656064
2018-05-27T01:19:52.879Z,9.656064
2018-05-27T01:20:05.322Z,1.609344
2018-05-27T01:20:17.749Z,3.218688
2018-05-27T01:20:30.163Z,6.437376
2018-05-27T01:20:42.885Z,6.437376
2018-05-27T01:20:55.329Z,6.437376
2018-05-27T01:21:07.746Z,8.04672
2018-05-27T01:21:20.150Z,8.04672
2018-05-27T01:21:32.568Z,8.04672
2018-05-27T01:21:45.001Z,8.04672
2018-05-27T01:21:57.431Z,8.04672
2018-05-27T01:22:09.850Z,6.437376
2018-05-27T01:22:22.303Z,6.437376
2018-05-27T01:22:34.717Z,6.437376
2018-05-27T01:22:47.133Z,6.437376
2018-05-27T01:22:59.543Z,6.437376
2018-05-27T01:23:11.957Z,1.609344
2018-05-27T01:23:24.356Z,1.609344
2018-05-27T01:23:36.963Z,1.609344
2018-05-27T01:23:49.381Z,3.218688
2018-05-27T01:24:01.792Z,6.437376
2018-05-27T01:24:14.203Z,4.828032
2018-05-27T01:24:26.695Z,6.437376
2018-05-27T01:24:39.112Z,6.437376
2018-05-27T01:24:51.528Z,6.437376
2018-05-27T01:25:04.017Z,3.218688
2018-05-27T01:25:16.445Z,3.218688
2018-05-27T01:25:28.868Z,6.437376
2018-05-27T01:25:41.302Z,6.437376
2018-05-27T01:25:53.724Z,8.04672
2018-05-27T01:26:06.139Z,8.04672
2018-05-27T01:26:18.553Z,9.656064
2018-05-27T01:26:30.967Z,9.656064
2018-05-27T01:26:43.387Z,9.656064
2018-05-27T01:26:55.829Z,9.656064
2018-05-27T01:27:08.255Z,4.828032
2018-05-27T01:27:20.671Z,4.828032
2018-05-27T01:27:33.079Z,6.437376
2018-05-27T01:27:45.513Z,8.04672
2018-05-27T01:27:57.924Z,8.04672
2018-05-27T01:28:10.370Z,4.828032
2018-05-27T01:28:22.775Z,4.828032
2018-05-27T01:28:35.253Z,4.828032
2018-05-27T01:28:47.695Z,6.437376
2018-05-27T01:29:00.133Z,6.437376
2018-05-27T01:29:12.560Z,4.828032
2018-05-27T01:29:25.144Z,6.437376
2018-05-27T01:29:37.558Z,6.437376
2018-05-27T01:29:49.975Z,6.437376
2018-05-27T01:30:02.398Z,6.437376
2018-05-27T01:30:14.848Z,3.218688
2018-05-27T01:30:27.264Z,3.218688
2018-05-27T01:30:39.713Z,3.218688
2018-05-27T01:30:52.152Z,3.218688
2018-05-27T01:31:04.575Z,1.609344
2018-05-27T01:31:16.993Z,3.218688
2018-05-27T01:31:29.410Z,3.218688
2018-05-27T01:31:41.876Z,3.218688
2018-05-27T01:31:54.287Z,3.218688
2018-05-27T01:32:06.696Z,1.609344
2018-05-27T01:32:19.132Z,1.609344
2018-05-27T01:32:31.572Z,1.609344
2018-05-27T01:32:43.987Z,1.609344
2018-05-27T01:32:56.440Z,3.218688
2018-05-27T01:33:08.863Z,3.218688
2018-05-27T01:33:21.313Z,3.218688
2018-05-27T01:33:33.720Z,3.218688
2018-05-27T01:33:46.157Z,3.218688
2018-05-27T01:33:58.575Z,3.218688
2018-05-27T01:34:11.012Z,1.609344
2018-05-27T01:34:23.459Z,1.609344
2018-05-27T01:34:35.880Z,1.609344
2018-05-27T01:34:48.340Z,1.609344
2018-05-27T01:35:00.765Z,3.218688
2018-05-27T01:35:13.193Z,3.218688
2018-05-27T01:35:25.626Z,3.218688
2018-05-27T01:35:38.038Z,3.218688
2018-05-27T01:35:50.456Z,3.218688
2018-05-27T01:36:02.897Z,1.609344
2018-05-27T01:36:15.310Z,3.218688
2018-05-27T01:36:27.729Z,3.218688
2018-05-27T01:36:40.306Z,3.218688
2018-05-27T01:36:52.714Z,3.218688
2018-05-27T01:37:05.156Z,1.609344
2018-05-27T01:37:17.575Z,3.218688
2018-05-27T01:37:30.005Z,3.218688
2018-05-27T01:37:42.412Z,3.218688
2018-05-27T01:37:54.822Z,3.218688
2018-05-27T01:38:07.238Z,1.609344
2018-05-27T01:38:19.641Z,1.609344
2018-05-27T01:38:32.063Z,3.218688
2018-05-27T01:38:44.498Z,3.218688
2018-05-27T01:38:57.098Z,3.218688
2018-05-27T01:39:09.524Z,1.609344
2018-05-27T01:39:21.921Z,3.218688
2018-05-27T01:39:34.377Z,4.828032
2018-05-27T01:39:46.784Z,6.437376
2018-05-27T01:39:59.237Z,6.437376
2018-05-27T01:40:11.665Z,3.218688
2018-05-27T01:40:24.073Z,8.04672
2018-05-27T01:40:36.495Z,8.04672
2018-05-27T01:40:48.913Z,8.04672
2018-05-27T01:41:01.462Z,8.04672
2018-05-27T01:41:13.863Z,3.218688
2018-05-27T01:41:26.272Z,3.218688
2018-05-27T01:41:38.717Z,3.218688
2018-05-27T01:41:51.143Z,3.218688
2018-05-27T01:42:03.592Z,0
2018-05-27T01:42:16.008Z,4.828032
2018-05-27T01:42:28.425Z,4.828032
2018-05-27T01:42:40.857Z,4.828032
2018-05-27T01:42:53.271Z,8.04672
2018-05-27T01:43:05.703Z,9.656064
2018-05-27T01:43:18.100Z,9.656064
2018-05-27T01:43:30.506Z,9.656064
2018-05-27T01:43:42.937Z,9.656064
2018-05-27T01:43:55.351Z,9.656064
2018-05-27T01:44:07.772Z,6.437376
2018-05-27T01:44:20.178Z,8.04672
2018-05-27T01:44:32.595Z,8.04672
2018-05-27T01:44:45.012Z,8.04672
2018-05-27T01:44:57.443Z,9.656064
2018-05-27T01:45:09.880Z,8.04672
2018-05-27T01:45:22.285Z,8.04672
2018-05-27T01:45:34.748Z,8.04672
2018-05-27T01:45:47.179Z,8.04672
2018-05-27T01:45:59.590Z,8.04672
2018-05-27T01:46:12.034Z,3.218688
2018-05-27T01:46:24.456Z,4.828032
2018-05-27T01:46:36.878Z,8.04672
2018-05-27T01:46:49.367Z,9.656064
2018-05-27T01:47:01.858Z,9.656064
2018-05-27T01:47:14.280Z,6.437376
2018-05-27T01:47:26.701Z,6.437376
2018-05-27T01:47:39.119Z,6.437376
2018-05-27T01:47:51.548Z,6.437376
2018-05-27T01:48:03.967Z,1.609344
2018-05-27T01:48:16.409Z,3.218688
2018-05-27T01:48:28.965Z,3.218688
2018-05-27T01:48:41.394Z,4.828032
2018-05-27T01:48:53.958Z,6.437376
2018-05-27T01:49:06.363Z,6.437376
2018-05-27T01:49:18.779Z,6.437376
2018-05-27T01:49:31.207Z,6.437376
2018-05-27T01:49:43.625Z,6.437376
2018-05-27T01:49:56.060Z,6.437376
2018-05-27T01:50:08.482Z,1.609344
2018-05-27T01:50:20.904Z,1.609344
2018-05-27T01:50:33.324Z,1.609344
2018-05-27T01:50:45.773Z,1.609344
2018-05-27T01:50:58.202Z,1.609344
2018-05-27T01:51:10.631Z,0
2018-05-27T01:51:23.067Z,4.828032
2018-05-27T01:51:35.485Z,6.437376
2018-05-27T01:51:47.926Z,6.437376
2018-05-27T01:52:00.362Z,8.04672
2018-05-27T01:52:12.791Z,11.265408
2018-05-27T01:52:25.409Z,11.265408
2018-05-27T01:52:37.827Z,11.265408
2018-05-27T01:52:50.249Z,11.265408
2018-05-27T01:53:02.677Z,11.265408
2018-05-27T01:53:15.093Z,6.437376
2018-05-27T01:53:27.509Z,6.437376
2018-05-27T01:53:39.934Z,8.04672
2018-05-27T01:53:52.361Z,8.04672
2018-05-27T01:54:04.777Z,1.609344
2018-05-27T01:54:17.199Z,3.218688
2018-05-27T01:54:29.647Z,3.218688
2018-05-27T01:54:42.057Z,9.656064
2018-05-27T01:54:54.479Z,9.656064
2018-05-27T01:55:06.911Z,4.828032
2018-05-27T01:55:19.302Z,6.437376
2018-05-27T01:55:31.720Z,6.437376
2018-05-27T01:55:44.145Z,6.437376
2018-05-27T01:55:56.566Z,6.437376
2018-05-27T01:56:08.984Z,1.609344
2018-05-27T01:56:21.430Z,1.609344
2018-05-27T01:56:33.845Z,1.609344
2018-05-27T01:56:46.254Z,1.609344
2018-05-27T01:56:58.663Z,3.218688
2018-05-27T01:57:11.071Z,4.828032
2018-05-27T01:57:23.536Z,4.828032
2018-05-27T01:57:35.989Z,6.437376
2018-05-27T01:57:48.405Z,8.04672
2018-05-27T01:58:00.823Z,8.04672
2018-05-27T01:58:13.262Z,8.04672
2018-05-27T01:58:25.676Z,8.04672
2018-05-27T01:58:38.107Z,8.04672
2018-05-27T01:58:50.540Z,8.04672
2018-05-27T01:59:02.998Z,4.828032
2018-05-27T01:59:15.417Z,8.04672
2018-05-27T01:59:27.839Z,8.04672
2018-05-27T01:59:40.273Z,9.656064
2018-05-27T01:59:52.742Z,9.656064
2018-05-27T02:00:05.217Z,3.218688
2018-05-27T02:00:17.669Z,3.218688
2018-05-27T02:00:30.114Z,3.218688
2018-05-27T02:00:42.557Z,3.218688
2018-05-27T02:00:54.995Z,3.218688
2018-05-27T02:01:07.471Z,1.609344
2018-05-27T02:01:19.937Z,4.828032
2018-05-27T02:01:32.381Z,6.437376
2018-05-27T02:01:44.827Z,6.437376
2018-05-27T02:01:57.266Z,6.437376
2018-05-27T02:02:09.722Z,1.609344
2018-05-27T02:02:22.184Z,3.218688
2018-05-27T02:02:34.608Z,6.437376
2018-05-27T02:02:47.014Z,6.437376
2018-05-27T02:02:59.431Z,6.437376
2018-05-27T02:03:11.848Z,3.218688
2018-05-27T02:03:24.278Z,3.218688
2018-05-27T02:03:36.734Z,3.218688
2018-05-27T02:03:49.287Z,3.218688
2018-05-27T02:04:01.714Z,3.218688
2018-05-27T02:04:14.129Z,1.609344
2018-05-27T02:04:26.542Z,1.609344
2018-05-27T02:04:38.962Z,1.609344
2018-05-27T02:04:51.368Z,3.218688
2018-05-27T02:05:03.784Z,3.218688
2018-05-27T02:05:16.231Z,3.218688
2018-05-27T02:05:28.644Z,3.218688
2018-05-27T02:05:41.050Z,8.04672
2018-05-27T02:05:53.470Z,8.04672
2018-05-27T02:06:05.900Z,6.437376
2018-05-27T02:06:18.380Z,8.04672
2018-05-27T02:06:31.022Z,8.04672
2018-05-27T02:06:43.454Z,9.656064
2018-05-27T02:06:55.886Z,9.656064
2018-05-27T02:07:08.298Z,1.609344
2018-05-27T02:07:20.701Z,1.609344
2018-05-27T02:07:33.107Z,1.609344
2018-05-27T02:07:45.526Z,1.609344
2018-05-27T02:07:57.968Z,1.609344
2018-05-27T02:08:10.401Z,3.218688
2018-05-27T02:08:22.828Z,3.218688
2018-05-27T02:08:35.294Z,3.218688
2018-05-27T02:08:47.725Z,3.218688
2018-05-27T02:09:00.159Z,3.218688
2018-05-27T02:09:12.590Z,0
2018-05-27T02:09:25.015Z,1.609344
2018-05-27T02:09:37.421Z,1.609344
2018-05-27T02:09:49.855Z,1.609344
2018-05-27T02:10:02.291Z,1.609344
2018-05-27T02:10:14.701Z,0
2018-05-27T02:10:27.126Z,1.609344
2018-05-27T02:10:39.563Z,1.609344
2018-05-27T02:10:51.970Z,1.609344
2018-05-27T02:11:04.404Z,3.218688
2018-05-27T02:11:16.838Z,3.218688
2018-05-27T02:11:29.443Z,3.218688
2018-05-27T02:11:41.858Z,3.218688
2018-05-27T02:11:54.275Z,3.218688
2018-05-27T02:12:06.685Z,1.609344
2018-05-27T02:12:19.088Z,3.218688
2018-05-27T02:12:31.501Z,3.218688
2018-05-27T02:12:43.953Z,3.218688
2018-05-27T02:12:56.379Z,6.437376
2018-05-27T02:13:08.795Z,3.218688
2018-05-27T02:13:21.227Z,8.04672
2018-05-27T02:13:33.665Z,8.04672
2018-05-27T02:13:46.091Z,8.04672
2018-05-27T02:13:58.510Z,8.04672
2018-05-27T02:14:10.943Z,1.609344
2018-05-27T02:14:23.388Z,3.218688
2018-05-27T02:14:35.803Z,3.218688
2018-05-27T02:14:48.214Z,3.218688
2018-05-27T02:15:00.634Z,3.218688
2018-05-27T02:15:13.096Z,3.218688
2018-05-27T02:15:25.512Z,3.218688
2018-05-27T02:15:37.928Z,3.218688
2018-05-27T02:15:50.507Z,3.218688
2018-05-27T02:16:02.926Z,0
2018-05-27T02:16:15.387Z,3.218688
2018-05-27T02:16:27.813Z,3.218688
2018-05-27T02:16:40.219Z,3.218688
2018-05-27T02:16:52.653Z,4.828032
2018-05-27T02:17:05.101Z,3.218688
2018-05-27T02:17:17.518Z,4.828032
2018-05-27T02:17:29.933Z,4.828032
2018-05-27T02:17:42.376Z,4.828032
2018-05-27T02:17:54.783Z,4.828032
2018-05-27T02:18:07.280Z,4.828032
2018-05-27T02:18:19.999Z,6.437376
2018-05-27T02:18:32.421Z,6.437376
2018-05-27T02:18:44.854Z,6.437376
2018-05-27T02:18:57.277Z,6.437376
2018-05-27T02:19:09.730Z,0
2018-05-27T02:19:22.171Z,0
2018-05-27T02:19:34.759Z,1.609344
2018-05-27T02:19:47.179Z,1.609344
2018-05-27T02:19:59.609Z,1.609344
2018-05-27T02:20:12.018Z,1.609344
2018-05-27T02:20:24.433Z,1.609344
2018-05-27T02:20:37.039Z,1.609344
2018-05-27T02:20:49.689Z,1.609344
2018-05-27T02:21:02.117Z,1.609344
2018-05-27T02:21:14.545Z,0
2018-05-27T02:21:26.979Z,0
2018-05-27T02:21:39.400Z,1.609344
2018-05-27T02:21:51.811Z,3.218688
2018-05-27T02:22:04.263Z,1.609344
2018-05-27T02:22:16.675Z,1.609344
2018-05-27T02:22:29.124Z,3.218688
2018-05-27T02:22:41.568Z,3.218688
2018-05-27T02:22:53.982Z,3.218688
2018-05-27T02:23:06.421Z,1.609344
2018-05-27T02:23:18.823Z,1.609344
2018-05-27T02:23:31.248Z,1.609344
2018-05-27T02:23:43.677Z,1.609344
2018-05-27T02:23:56.080Z,3.218688
2018-05-27T02:24:08.646Z,1.609344
2018-05-27T02:24:21.048Z,1.609344
2018-05-27T02:24:33.470Z,1.609344
2018-05-27T02:24:45.890Z,1.609344
2018-05-27T02:24:58.299Z,1.609344
2018-05-27T02:25:10.718Z,0
2018-05-27T02:25:23.136Z,1.609344
2018-05-27T02:25:35.577Z,1.609344
2018-05-27T02:25:48.017Z,3.218688
2018-05-27T02:26:00.451Z,3.218688
2018-05-27T02:26:12.915Z,1.609344
2018-05-27T02:26:25.353Z,1.609344
2018-05-27T02:26:37.761Z,1.609344
2018-05-27T02:26:50.182Z,1.609344
2018-05-27T02:27:02.606Z,1.609344
2018-05-27T02:27:15.044Z,1.609344